sensor_id;sensor_type;location;lat;lon;timestamp;P1;durP1;ratioP1;P2;durP2;ratioP2
14153;SDS011;7157;53.144;7.570;2023-08-21T00:07:42;4.38;;;2.22;;
14153;SDS011;7157;53.144;7.570;2023-08-21T00:17:46;10.23;;;3.08;;
14153;SDS011;7157;53.144;7.570;2023-08-21T00:27:49;4.07;;;1.88;;
14153;SDS011;7157;53.144;7.570;2023-08-21T00:37:53;6.78;;;1.90;;
14153;SDS011;7157;53.144;7.570;2023-08-21T00:47:56;8.20;;;3.45;;
14153;SDS011;7157;53.144;7.570;2023-08-21T00:58:00;7.70;;;2.83;;
14153;SDS011;7157;53.144;7.570;2023-08-21T01:08:05;5.90;;;3.00;;
14153;SDS011;7157;53.144;7.570;2023-08-21T01:18:17;9.23;;;2.92;;
14153;SDS011;7157;53.144;7.570;2023-08-21T01:28:22;8.68;;;2.72;;
14153;SDS011;7157;53.144;7.570;2023-08-21T01:38:24;9.38;;;3.38;;
14153;SDS011;7157;53.144;7.570;2023-08-21T01:48:29;10.25;;;2.97;;
14153;SDS011;7157;53.144;7.570;2023-08-21T01:58:32;14.80;;;3.22;;
14153;SDS011;7157;53.144;7.570;2023-08-21T02:08:36;12.98;;;4.15;;
14153;SDS011;7157;53.144;7.570;2023-08-21T02:18:38;11.40;;;3.78;;
14153;SDS011;7157;53.144;7.570;2023-08-21T02:28:42;6.80;;;3.20;;
14153;SDS011;7157;53.144;7.570;2023-08-21T02:38:45;10.82;;;3.80;;
14153;SDS011;7157;53.144;7.570;2023-08-21T02:48:50;7.30;;;3.15;;
14153;SDS011;7157;53.144;7.570;2023-08-21T02:58:52;8.90;;;3.63;;
14153;SDS011;7157;53.144;7.570;2023-08-21T03:08:56;8.07;;;3.45;;
14153;SDS011;7157;53.144;7.570;2023-08-21T03:18:59;4.78;;;2.67;;
14153;SDS011;7157;53.144;7.570;2023-08-21T03:29:04;6.40;;;3.22;;
14153;SDS011;7157;53.144;7.570;2023-08-21T03:39:07;6.15;;;3.13;;
14153;SDS011;7157;53.144;7.570;2023-08-21T03:49:11;10.35;;;3.08;;
14153;SDS011;7157;53.144;7.570;2023-08-21T03:59:14;6.32;;;1.92;;
14153;SDS011;7157;53.144;7.570;2023-08-21T04:09:18;7.53;;;2.75;;
14153;SDS011;7157;53.144;7.570;2023-08-21T04:19:21;13.93;;;3.50;;
14153;SDS011;7157;53.144;7.570;2023-08-21T04:29:25;11.55;;;3.90;;
14153;SDS011;7157;53.144;7.570;2023-08-21T04:39:27;8.93;;;2.92;;
14153;SDS011;7157;53.144;7.570;2023-08-21T04:49:31;8.88;;;2.90;;
14153;SDS011;7157;53.144;7.570;2023-08-21T04:59:34;6.00;;;2.90;;
14153;SDS011;7157;53.144;7.570;2023-08-21T05:09:39;6.57;;;2.70;;
14153;SDS011;7157;53.144;7.570;2023-08-21T05:19:42;8.32;;;3.15;;
14153;SDS011;7157;53.144;7.570;2023-08-21T05:29:46;8.80;;;3.58;;
14153;SDS011;7157;53.144;7.570;2023-08-21T05:39:50;11.10;;;3.90;;
14153;SDS011;7157;53.144;7.570;2023-08-21T05:49:54;15.13;;;4.10;;
14153;SDS011;7157;53.144;7.570;2023-08-21T05:59:57;9.15;;;4.18;;
14153;SDS011;7157;53.144;7.570;2023-08-21T06:10:01;7.85;;;3.97;;
14153;SDS011;7157;53.144;7.570;2023-08-21T06:20:06;7.30;;;4.00;;
14153;SDS011;7157;53.144;7.570;2023-08-21T06:30:12;6.78;;;3.60;;
14153;SDS011;7157;53.144;7.570;2023-08-21T06:40:18;7.28;;;3.30;;
14153;SDS011;7157;53.144;7.570;2023-08-21T06:50:22;8.50;;;3.30;;
14153;SDS011;7157;53.144;7.570;2023-08-21T07:00:24;7.47;;;3.15;;
14153;SDS011;7157;53.144;7.570;2023-08-21T07:10:29;9.02;;;3.10;;
14153;SDS011;7157;53.144;7.570;2023-08-21T07:20:32;7.20;;;2.38;;
14153;SDS011;7157;53.144;7.570;2023-08-21T07:30:37;7.03;;;2.05;;
14153;SDS011;7157;53.144;7.570;2023-08-21T07:40:41;6.75;;;1.60;;
14153;SDS011;7157;53.144;7.570;2023-08-21T07:50:51;6.13;;;1.38;;
14153;SDS011;7157;53.144;7.570;2023-08-21T08:00:54;7.57;;;1.27;;
14153;SDS011;7157;53.144;7.570;2023-08-21T08:11:01;6.40;;;0.95;;
14153;SDS011;7157;53.144;7.570;2023-08-21T08:21:05;2.88;;;0.90;;
14153;SDS011;7157;53.144;7.570;2023-08-21T08:31:15;4.63;;;1.05;;
14153;SDS011;7157;53.144;7.570;2023-08-21T08:41:19;5.80;;;1.20;;
14153;SDS011;7157;53.144;7.570;2023-08-21T08:51:30;4.82;;;0.93;;
14153;SDS011;7157;53.144;7.570;2023-08-21T09:01:36;3.58;;;0.85;;
14153;SDS011;7157;53.144;7.570;2023-08-21T09:11:43;5.07;;;1.30;;
14153;SDS011;7157;53.144;7.570;2023-08-21T09:21:49;3.80;;;1.08;;
14153;SDS011;7157;53.144;7.570;2023-08-21T09:31:55;4.80;;;0.90;;
14153;SDS011;7157;53.144;7.570;2023-08-21T09:41:58;3.17;;;1.00;;
14153;SDS011;7157;53.144;7.570;2023-08-21T09:52:03;3.15;;;0.93;;
14153;SDS011;7157;53.144;7.570;2023-08-21T10:02:06;4.18;;;1.38;;
14153;SDS011;7157;53.144;7.570;2023-08-21T10:12:13;5.68;;;1.02;;
14153;SDS011;7157;53.144;7.570;2023-08-21T10:22:20;5.43;;;0.98;;
14153;SDS011;7157;53.144;7.570;2023-08-21T10:32:45;3.05;;;0.80;;
14153;SDS011;7157;53.144;7.570;2023-08-21T10:42:49;5.53;;;1.30;;
14153;SDS011;7157;53.144;7.570;2023-08-21T10:52:53;3.60;;;0.80;;
14153;SDS011;7157;53.144;7.570;2023-08-21T11:02:56;3.13;;;0.70;;
14153;SDS011;7157;53.144;7.570;2023-08-21T11:13:00;3.65;;;0.70;;
14153;SDS011;7157;53.144;7.570;2023-08-21T11:23:04;4.85;;;0.90;;
14153;SDS011;7157;53.144;7.570;2023-08-21T11:33:10;4.03;;;0.93;;
14153;SDS011;7157;53.144;7.570;2023-08-21T11:43:15;4.03;;;1.10;;
14153;SDS011;7157;53.144;7.570;2023-08-21T11:53:30;3.27;;;0.80;;
14153;SDS011;7157;53.144;7.570;2023-08-21T12:03:37;4.82;;;1.35;;
14153;SDS011;7157;53.144;7.570;2023-08-21T12:13:42;3.58;;;0.90;;
14153;SDS011;7157;53.144;7.570;2023-08-21T12:23:45;3.47;;;1.00;;
14153;SDS011;7157;53.144;7.570;2023-08-21T12:33:49;5.65;;;0.90;;
14153;SDS011;7157;53.144;7.570;2023-08-21T12:43:52;5.32;;;1.25;;
14153;SDS011;7157;53.144;7.570;2023-08-21T12:53:56;10.00;;;1.00;;
14153;SDS011;7157;53.144;7.570;2023-08-21T13:03:59;3.23;;;0.97;;
14153;SDS011;7157;53.144;7.570;2023-08-21T13:14:03;2.72;;;0.88;;
14153;SDS011;7157;53.144;7.570;2023-08-21T13:24:06;2.92;;;1.10;;
14153;SDS011;7157;53.144;7.570;2023-08-21T13:34:10;3.03;;;0.80;;
14153;SDS011;7157;53.144;7.570;2023-08-21T13:44:12;2.90;;;1.02;;
14153;SDS011;7157;53.144;7.570;2023-08-21T13:54:16;5.50;;;1.20;;
14153;SDS011;7157;53.144;7.570;2023-08-21T14:04:20;4.35;;;1.15;;
14153;SDS011;7157;53.144;7.570;2023-08-21T14:14:24;4.90;;;1.00;;
14153;SDS011;7157;53.144;7.570;2023-08-21T14:24:26;2.80;;;0.93;;
14153;SDS011;7157;53.144;7.570;2023-08-21T14:34:30;2.42;;;0.80;;
14153;SDS011;7157;53.144;7.570;2023-08-21T14:44:33;4.95;;;0.68;;
14153;SDS011;7157;53.144;7.570;2023-08-21T14:54:37;2.35;;;0.77;;
14153;SDS011;7157;53.144;7.570;2023-08-21T15:04:40;15.27;;;3.28;;
14153;SDS011;7157;53.144;7.570;2023-08-21T15:14:44;3.55;;;1.00;;
14153;SDS011;7157;53.144;7.570;2023-08-21T15:24:47;4.68;;;0.90;;
14153;SDS011;7157;53.144;7.570;2023-08-21T15:34:51;3.78;;;0.80;;
14153;SDS011;7157;53.144;7.570;2023-08-21T15:44:54;2.25;;;0.80;;
14153;SDS011;7157;53.144;7.570;2023-08-21T15:54:58;1.95;;;0.65;;
14153;SDS011;7157;53.144;7.570;2023-08-21T16:05:01;4.50;;;1.10;;
14153;SDS011;7157;53.144;7.570;2023-08-21T16:15:07;2.38;;;0.82;;
14153;SDS011;7157;53.144;7.570;2023-08-21T16:25:10;2.70;;;0.70;;
14153;SDS011;7157;53.144;7.570;2023-08-21T16:35:16;3.35;;;1.00;;
14153;SDS011;7157;53.144;7.570;2023-08-21T16:45:18;3.35;;;0.98;;
14153;SDS011;7157;53.144;7.570;2023-08-21T16:55:22;3.72;;;0.95;;
14153;SDS011;7157;53.144;7.570;2023-08-21T17:05:25;5.45;;;0.77;;
14153;SDS011;7157;53.144;7.570;2023-08-21T17:15:30;4.22;;;0.90;;
14153;SDS011;7157;53.144;7.570;2023-08-21T17:25:32;3.13;;;0.95;;
14153;SDS011;7157;53.144;7.570;2023-08-21T17:35:37;4.53;;;0.90;;
14153;SDS011;7157;53.144;7.570;2023-08-21T17:45:39;2.67;;;0.90;;
14153;SDS011;7157;53.144;7.570;2023-08-21T17:55:44;3.67;;;1.10;;
14153;SDS011;7157;53.144;7.570;2023-08-21T18:05:46;5.75;;;1.33;;
14153;SDS011;7157;53.144;7.570;2023-08-21T18:15:50;6.90;;;1.48;;
14153;SDS011;7157;53.144;7.570;2023-08-21T18:25:53;5.63;;;1.70;;
14153;SDS011;7157;53.144;7.570;2023-08-21T18:35:58;5.45;;;1.60;;
14153;SDS011;7157;53.144;7.570;2023-08-21T18:46:01;11.02;;;2.33;;
14153;SDS011;7157;53.144;7.570;2023-08-21T18:56:07;7.07;;;2.20;;
14153;SDS011;7157;53.144;7.570;2023-08-21T19:06:10;10.13;;;2.05;;
14153;SDS011;7157;53.144;7.570;2023-08-21T19:16:14;10.65;;;2.85;;
14153;SDS011;7157;53.144;7.570;2023-08-21T19:26:16;10.20;;;3.10;;
14153;SDS011;7157;53.144;7.570;2023-08-21T19:36:20;10.23;;;3.30;;
14153;SDS011;7157;53.144;7.570;2023-08-21T19:46:23;8.05;;;2.95;;
14153;SDS011;7157;53.144;7.570;2023-08-21T19:56:27;11.27;;;3.30;;
14153;SDS011;7157;53.144;7.570;2023-08-21T20:06:30;10.43;;;3.40;;
14153;SDS011;7157;53.144;7.570;2023-08-21T20:16:34;9.60;;;3.40;;
14153;SDS011;7157;53.144;7.570;2023-08-21T20:26:37;8.25;;;3.10;;
14153;SDS011;7157;53.144;7.570;2023-08-21T20:36:41;9.55;;;3.10;;
14153;SDS011;7157;53.144;7.570;2023-08-21T20:46:44;7.40;;;3.22;;
14153;SDS011;7157;53.144;7.570;2023-08-21T20:56:48;10.20;;;3.30;;
14153;SDS011;7157;53.144;7.570;2023-08-21T21:06:53;6.70;;;3.28;;
14153;SDS011;7157;53.144;7.570;2023-08-21T21:16:57;7.45;;;3.95;;
14153;SDS011;7157;53.144;7.570;2023-08-21T21:27:00;7.60;;;4.43;;
14153;SDS011;7157;53.144;7.570;2023-08-21T21:37:04;12.80;;;4.35;;
14153;SDS011;7157;53.144;7.570;2023-08-21T21:47:10;13.20;;;4.78;;
14153;SDS011;7157;53.144;7.570;2023-08-21T21:57:14;9.93;;;4.32;;
14153;SDS011;7157;53.144;7.570;2023-08-21T22:07:17;12.77;;;4.25;;
14153;SDS011;7157;53.144;7.570;2023-08-21T22:17:21;12.60;;;4.20;;
14153;SDS011;7157;53.144;7.570;2023-08-21T22:27:23;9.77;;;4.10;;
14153;SDS011;7157;53.144;7.570;2023-08-21T22:37:28;9.30;;;3.85;;
14153;SDS011;7157;53.144;7.570;2023-08-21T22:47:31;14.02;;;4.55;;
14153;SDS011;7157;53.144;7.570;2023-08-21T22:57:35;8.20;;;4.65;;
14153;SDS011;7157;53.144;7.570;2023-08-21T23:07:41;11.20;;;3.95;;
14153;SDS011;7157;53.144;7.570;2023-08-21T23:17:45;11.15;;;4.40;;
14153;SDS011;7157;53.144;7.570;2023-08-21T23:27:48;12.20;;;4.43;;
14153;SDS011;7157;53.144;7.570;2023-08-21T23:37:53;10.57;;;4.45;;
14153;SDS011;7157;53.144;7.570;2023-08-21T23:47:55;9.57;;;3.88;;
14153;SDS011;7157;53.144;7.570;2023-08-21T23:57:59;8.82;;;3.47;;
